Terminal Aerodrome Forecast
Issued by NWS

Current Version | Previous Version | Text Only | Print | Product List | Glossary Off
Versions: 1 2 3 4 5 6 7 8 9 10 11 12 13 14 15 16 17 18 19 20

000
FTUS41 KILN 190346 AAB
TAFLUK
TAF AMD
KLUK 190346Z 1904/1924 30018G29KT P6SM OVC018
      TEMPO 1904/1906 5SM -DZ BR OVC009
     FM190900 29012G20KT P6SM OVC018
     FM191300 29011G18KT P6SM BKN025
     FM192000 29011KT P6SM SCT025=

USA.gov is the U.S. government's official web portal to all federal, state and local government web resources and services.